EST,Max TemperatureF,Mean TemperatureF,Min TemperatureF,Max Dew PointF,MeanDew PointF,Min DewpointF,Max Humidity, Mean Humidity, Min Humidity, Max Sea Level PressureIn, Mean Sea Level PressureIn, Min Sea Level PressureIn, Max VisibilityMiles, Mean VisibilityMiles, Min VisibilityMiles, Max Wind SpeedMPH, Mean Wind SpeedMPH, Max Gust SpeedMPH,PrecipitationIn, CloudCover, Events, WindDirDegrees
2013-12-1,60,45,30,36,31,25,100,67,25,30.37,30.20,30.04,10,8,5,5,0,,0.00,2,,269
2013-12-2,60,48,35,41,36,32,93,74,34,30.03,29.91,29.85,10,9,7,5,0,,0.00,3,,40
2013-12-3,62,48,33,48,39,32,93,72,45,30.02,29.96,29.88,10,8,4,8,2,,0.00,4,Rain,181
2013-12-4,68,60,53,57,53,46,94,83,64,30.11,30.05,30.01,10,7,0,6,0,,0.00,7,Fog-Rain,180
2013-12-5,69,64,59,64,60,55,94,86,78,30.16,30.10,30.06,10,5,0,12,4,,0.00,8,Fog-Rain,191
2013-12-6,80,74,68,64,62,61,83,70,51,30.10,30.04,29.99,10,10,7,17,8,23,0.00,2,,198
2013-12-7,71,58,44,64,42,30,94,73,57,30.47,30.29,30.01,10,9,4,15,8,23,0.18,8,Rain,14
2013-12-8,44,40,35,36,32,28,93,83,57,30.48,30.41,30.31,10,5,2,14,7,17,0.06,8,Rain,16
2013-12-9,50,44,37,46,41,36,93,92,87,30.29,30.16,30.08,7,4,1,6,0,,0.15,8,Rain,171
2013-12-10,50,41,32,46,40,23,93,82,57,30.33,30.08,29.93,10,7,1,8,2,,0.64,5,Rain,337
2013-12-11,51,40,28,30,25,18,93,63,26,30.46,30.36,30.29,10,10,10,6,1,,0.00,0,,224
2013-12-12,46,37,28,30,20,1,93,55,17,30.42,30.35,30.28,10,10,10,12,2,16,0.00,0,,332
2013-12-13,53,40,26,30,20,12,80,51,19,30.40,30.33,30.28,10,10,7,8,1,,0.00,0,,226
2013-12-14,50,44,37,43,36,28,93,78,43,30.31,30.08,29.78,10,7,1,8,2,,0.86,6,Rain,72
2013-12-15,55,46,37,43,36,28,93,70,41,30.07,29.87,29.73,10,8,2,8,2,18,0.03,4,Rain,291
2013-12-16,55,44,32,34,31,28,93,64,38,30.18,30.12,30.07,10,10,10,7,1,,0.00,0,,234
2013-12-17,62,48,35,41,35,32,93,58,32,30.13,30.03,29.88,10,10,7,18,4,25,0.00,1,Rain,208
2013-12-18,51,42,32,36,23,14,71,50,24,30.30,30.21,30.04,10,10,10,8,3,,0.00,0,,293
2013-12-19,64,48,33,30,24,16,70,42,16,30.33,30.28,30.23,10,10,10,8,4,17,0.00,0,,201
2013-12-20,69,56,44,52,45,30,87,63,47,30.26,30.20,30.13,10,10,10,12,4,16,0.00,2,,197
2013-12-21,77,65,53,64,56,46,94,75,50,30.17,30.12,30.07,10,10,7,17,3,24,0.00,2,,187
2013-12-22,80,73,66,66,64,61,88,72,51,30.14,30.08,30.05,10,10,5,16,10,26,0.10,7,Rain,193
2013-12-23,69,60,50,68,60,46,94,86,78,30.16,30.07,30.02,10,8,2,13,5,22,1.20,8,Rain,230
2013-12-24,50,41,32,46,29,14,93,59,38,30.46,30.27,30.14,10,10,2,12,6,18,0.01,4,Rain,345
2013-12-25,41,34,26,21,16,10,80,54,29,30.56,30.48,30.41,10,10,10,8,2,,0.00,0,,32
2013-12-26,53,40,26,34,28,21,93,73,30,30.41,30.33,30.25,10,10,3,5,0,,0.03,4,Rain,285
2013-12-27,53,42,30,28,24,18,87,59,24,30.47,30.41,30.37,10,10,10,6,1,,0.00,0,,340
2013-12-28,62,45,28,36,28,18,93,59,20,30.41,30.33,30.17,10,10,10,8,1,,0.00,1,Rain,202
2013-12-29,68,57,46,64,49,36,94,85,58,30.17,29.87,29.67,10,7,1,15,3,24,1.67,5,Rain,213
2013-12-30,57,49,41,45,40,36,93,74,48,30.15,30.05,29.93,10,10,5,6,1,,0.00,2,,281
2013-12-31,53,44,35,37,29,18,93,59,26,30.36,30.24,30.13,10,10,5,14,2,25,0.00,3,Rain,270